Time;durP1;ratioP1;P1;durP2;ratioP2;P2;SDS_P1;SDS_P2;PMS_P1;PMS_P2;Temp;Humidity;BMP_temperature;BMP_pressure;BME280_temperature;BME280_humidity;BME280_pressure;Samples;Min_cycle;Max_cycle;Signal;HPM_P1;HPM_P2
2020/12/06 00:00:56;;;;;;;18.10;13.97;;;7.10;93.90;;;;;;5093369;28;20375;-71
2020/12/06 00:03:22;;;;;;;14.90;13.20;;;7.20;93.80;;;;;;5090365;28;20484;-71
2020/12/06 00:05:48;;;;;;;14.43;12.37;;;7.20;94.00;;;;;;5085561;28;20190;-70
2020/12/06 00:08:14;;;;;;;16.73;13.80;;;7.20;93.90;;;;;;5088547;28;20179;-71
2020/12/06 00:10:39;;;;;;;15.27;13.70;;;7.20;93.70;;;;;;5093364;28;20172;-70
2020/12/06 00:13:05;;;;;;;14.80;13.30;;;7.20;93.60;;;;;;5093018;28;20189;-71
2020/12/06 00:15:31;;;;;;;18.00;13.97;;;7.20;93.60;;;;;;5092299;28;20175;-71
2020/12/06 00:17:57;;;;;;;15.77;13.80;;;7.00;93.60;;;;;;5093087;28;20197;-71
2020/12/06 00:20:23;;;;;;;16.23;13.80;;;6.80;93.80;;;;;;5092192;28;20624;-71
2020/12/06 00:22:50;;;;;;;16.97;14.57;;;6.70;94.30;;;;;;5092739;28;20680;-71
2020/12/06 00:25:15;;;;;;;16.63;14.40;;;6.50;94.50;;;;;;5092521;28;20387;-71
2020/12/06 00:27:41;;;;;;;15.80;13.63;;;6.50;94.80;;;;;;5093051;28;20910;-71
2020/12/06 00:30:09;;;;;;;18.60;13.97;;;6.60;95.00;;;;;;5092768;28;20457;-71
2020/12/06 00:32:35;;;;;;;15.87;13.40;;;6.70;94.90;;;;;;5091949;28;20183;-71
2020/12/06 00:35:02;;;;;;;16.40;13.80;;;6.70;94.50;;;;;;5088324;28;20412;-71
2020/12/06 00:37:28;;;;;;;15.67;13.80;;;6.60;94.70;;;;;;5091498;28;20470;-71
2020/12/06 00:39:53;;;;;;;16.37;14.20;;;6.50;95.10;;;;;;5092463;28;20898;-70
2020/12/06 00:42:19;;;;;;;16.60;13.77;;;6.50;95.20;;;;;;5091956;28;20427;-71
2020/12/06 00:44:45;;;;;;;16.00;14.30;;;6.50;95.20;;;;;;5092611;28;20180;-71
2020/12/06 00:47:11;;;;;;;16.37;14.50;;;6.60;94.90;;;;;;5091834;28;20180;-71
2020/12/06 00:49:36;;;;;;;16.47;13.77;;;6.70;94.90;;;;;;5091516;28;20209;-70
2020/12/06 00:52:03;;;;;;;17.10;14.40;;;6.70;94.70;;;;;;5091941;28;20176;-71
2020/12/06 00:54:29;;;;;;;17.80;15.17;;;6.70;94.70;;;;;;5091197;28;20628;-71
2020/12/06 00:56:57;;;;;;;16.93;13.17;;;6.80;94.50;;;;;;5073399;28;20427;-71
2020/12/06 00:59:24;;;;;;;16.50;14.43;;;6.70;94.30;;;;;;5091607;28;20177;-70
2020/12/06 01:01:50;;;;;;;15.97;13.77;;;6.20;95.10;;;;;;5092224;28;20446;-70
2020/12/06 01:04:16;;;;;;;18.93;15.03;;;6.20;95.70;;;;;;5088249;28;20390;-71
2020/12/06 01:06:42;;;;;;;17.53;15.07;;;6.30;95.60;;;;;;5090451;28;20456;-71
2020/12/06 01:09:08;;;;;;;15.73;13.73;;;6.40;95.60;;;;;;5091827;28;20678;-71
2020/12/06 01:11:33;;;;;;;19.97;15.50;;;6.50;95.70;;;;;;5091698;28;20271;-71
2020/12/06 01:13:59;;;;;;;22.60;16.30;;;6.60;95.30;;;;;;5091994;28;20230;-70
2020/12/06 01:16:25;;;;;;;15.27;13.67;;;6.60;95.00;;;;;;5091296;28;20211;-71
2020/12/06 01:18:51;;;;;;;16.00;14.23;;;6.60;95.00;;;;;;5091965;28;20233;-71
2020/12/06 01:21:16;;;;;;;16.10;14.30;;;6.60;94.80;;;;;;5091857;28;20625;-72
2020/12/06 01:23:42;;;;;;;16.20;14.50;;;6.50;94.80;;;;;;5091645;28;20271;-71
2020/12/06 01:26:12;;;;;;;18.00;14.03;;;6.40;95.10;;;;;;5091937;28;20181;-71
2020/12/06 01:28:37;;;;;;;17.67;15.07;;;6.40;95.20;;;;;;5090968;28;20244;-71
2020/12/06 01:31:05;;;;;;;15.93;14.33;;;6.50;95.10;;;;;;5078414;28;20252;-71
2020/12/06 01:33:31;;;;;;;16.17;13.97;;;6.50;95.00;;;;;;5072534;28;20512;-71
2020/12/06 01:35:56;;;;;;;15.23;13.63;;;6.50;94.80;;;;;;5076956;28;20389;-71
2020/12/06 01:38:22;;;;;;;15.23;13.63;;;6.60;95.30;;;;;;5090218;28;20176;-71
2020/12/06 01:40:48;;;;;;;15.80;14.20;;;6.60;95.40;;;;;;5090465;28;20204;-71
2020/12/06 01:43:13;;;;;;;17.70;14.87;;;6.50;95.00;;;;;;5072770;28;20181;-71
2020/12/06 01:45:41;;;;;;;16.23;14.30;;;6.20;95.10;;;;;;5089853;28;20180;-71
2020/12/06 01:48:07;;;;;;;16.80;14.82;;;6.00;95.70;;;;;;5091352;28;20172;-70
2020/12/06 01:50:37;;;;;;;18.52;14.65;;;5.70;96.20;;;;;;5090529;28;20200;-71
2020/12/06 01:53:04;;;;;;;16.95;14.70;;;5.50;96.90;;;;;;5090248;28;20172;-71
2020/12/06 01:55:31;;;;;;;16.60;14.60;;;5.40;97.50;;;;;;5087362;28;20179;-71
2020/12/06 01:58:04;;;;;;;16.17;14.48;;;5.30;97.70;;;;;;5090653;28;20677;-71
2020/12/06 02:00:31;;;;;;;18.23;14.20;;;5.40;98.10;;;;;;5070970;28;20162;-71
2020/12/06 02:03:02;;;;;;;15.57;13.15;;;5.60;98.60;;;;;;5081512;28;20173;-71
2020/12/06 02:05:28;;;;;;;16.63;14.30;;;5.70;98.40;;;;;;5091095;28;20169;-72
2020/12/06 02:07:57;;;;;;;16.23;13.95;;;5.80;97.70;;;;;;5090302;28;20536;-71
2020/12/06 02:10:31;;;;;;;16.02;14.27;;;5.80;97.30;;;;;;5089768;28;20564;-71
2020/12/06 02:12:58;;;;;;;18.08;14.50;;;5.80;97.10;;;;;;5090553;28;20184;-71
2020/12/06 02:15:23;;;;;;;14.93;13.32;;;5.90;97.10;;;;;;5089337;28;20177;-71
2020/12/06 02:17:50;;;;;;;17.27;14.67;;;6.00;96.90;;;;;;5090312;28;20175;-71
2020/12/06 02:20:16;;;;;;;16.25;14.43;;;6.10;96.80;;;;;;5090608;28;20185;-71
2020/12/06 02:22:42;;;;;;;15.77;14.05;;;6.20;96.60;;;;;;5089713;28;20173;-71
2020/12/06 02:25:07;;;;;;;15.63;12.90;;;6.20;96.40;;;;;;5089983;28;20168;-71
2020/12/06 02:27:33;;;;;;;16.77;14.27;;;6.30;96.10;;;;;;5091692;28;20502;-71
2020/12/06 02:29:59;;;;;;;16.00;12.53;;;6.30;95.90;;;;;;5094588;28;20815;-71
2020/12/06 02:32:25;;;;;;;17.37;14.00;;;6.40;95.70;;;;;;5094472;28;20184;-71
2020/12/06 02:34:51;;;;;;;15.23;13.73;;;6.50;95.60;;;;;;5095186;28;20447;-71
2020/12/06 02:37:16;;;;;;;16.57;13.70;;;6.50;95.40;;;;;;5095104;28;20178;-71
2020/12/06 02:39:43;;;;;;;14.77;13.27;;;6.50;95.20;;;;;;5076485;28;20179;-71
2020/12/06 02:42:09;;;;;;;15.63;13.97;;;6.60;95.10;;;;;;5095104;28;20169;-71
2020/12/06 02:44:34;;;;;;;16.43;14.30;;;6.50;95.10;;;;;;5076224;28;20439;-71
2020/12/06 02:47:00;;;;;;;16.63;14.83;;;6.50;95.20;;;;;;5094760;28;20169;-71
2020/12/06 02:49:26;;;;;;;15.27;13.67;;;6.50;95.30;;;;;;5094023;28;20208;-71
2020/12/06 02:51:52;;;;;;;15.90;13.60;;;6.50;95.30;;;;;;5094624;28;20209;-71
2020/12/06 02:54:18;;;;;;;16.43;13.57;;;6.60;95.40;;;;;;5094663;28;20772;-72
2020/12/06 02:56:44;;;;;;;17.00;15.10;;;6.60;95.40;;;;;;5094543;28;20188;-71
2020/12/06 02:59:10;;;;;;;16.50;14.07;;;6.60;95.20;;;;;;5094724;28;20414;-71
2020/12/06 03:01:35;;;;;;;15.77;14.20;;;6.70;95.30;;;;;;5075763;28;20207;-71
2020/12/06 03:04:01;;;;;;;15.93;14.30;;;6.70;95.20;;;;;;5094594;28;20222;-71
2020/12/06 03:06:27;;;;;;;17.83;14.20;;;6.70;95.20;;;;;;5093728;28;20261;-71
2020/12/06 03:08:53;;;;;;;17.20;14.47;;;6.60;95.10;;;;;;5094437;28;20212;-71
2020/12/06 03:11:20;;;;;;;17.83;15.10;;;6.50;95.20;;;;;;5094287;28;20181;-71
2020/12/06 03:13:46;;;;;;;20.30;15.90;;;6.10;95.60;;;;;;5094323;28;20427;-71
2020/12/06 03:16:11;;;;;;;16.13;14.10;;;5.80;96.70;;;;;;5094122;28;20177;-71
2020/12/06 03:18:37;;;;;;;17.07;15.20;;;6.00;97.00;;;;;;5093591;28;20192;-71
2020/12/06 03:21:03;;;;;;;17.73;15.83;;;6.00;96.80;;;;;;5094362;28;20168;-71
2020/12/06 03:23:29;;;;;;;17.23;14.33;;;6.10;96.60;;;;;;5093428;28;20248;-71
2020/12/06 03:25:54;;;;;;;17.83;14.80;;;6.20;96.60;;;;;;5093904;28;20185;-71
2020/12/06 03:28:20;;;;;;;15.57;13.83;;;6.20;96.30;;;;;;5093799;28;20598;-71
2020/12/06 03:30:46;;;;;;;15.27;12.90;;;6.30;96.30;;;;;;5093722;28;20609;-71
2020/12/06 03:33:12;;;;;;;18.30;14.30;;;6.30;96.40;;;;;;5094167;28;20178;-71
2020/12/06 03:35:37;;;;;;;15.50;13.87;;;6.40;96.40;;;;;;5093094;28;20207;-71
2020/12/06 03:38:03;;;;;;;15.87;13.60;;;6.40;96.20;;;;;;5093899;28;20169;-71
2020/12/06 03:40:29;;;;;;;15.27;13.60;;;6.50;96.10;;;;;;5093056;28;20235;-71
2020/12/06 03:42:55;;;;;;;16.50;14.37;;;6.60;96.00;;;;;;5093827;28;20165;-71
2020/12/06 03:45:20;;;;;;;16.20;14.47;;;6.60;95.60;;;;;;5093708;28;20199;-71
2020/12/06 03:47:47;;;;;;;15.33;13.57;;;6.70;95.50;;;;;;5093217;28;20256;-71
2020/12/06 03:50:13;;;;;;;15.00;13.40;;;6.80;95.50;;;;;;5093524;28;20595;-71
2020/12/06 03:52:39;;;;;;;15.63;13.90;;;6.80;95.20;;;;;;5092816;28;20411;-71
2020/12/06 03:55:05;;;;;;;14.50;12.80;;;6.80;95.10;;;;;;5093168;28;20379;-71
2020/12/06 03:57:31;;;;;;;15.10;13.50;;;6.80;95.00;;;;;;5092689;28;20181;-71
2020/12/06 03:59:57;;;;;;;16.63;14.27;;;6.70;95.00;;;;;;5093836;28;20733;-71
2020/12/06 04:02:23;;;;;;;15.87;13.83;;;6.50;95.10;;;;;;5093152;28;20192;-72
2020/12/06 04:04:48;;;;;;;15.70;14.10;;;6.40;95.40;;;;;;5092788;28;20173;-71
2020/12/06 04:07:14;;;;;;;18.50;13.57;;;6.40;95.70;;;;;;5093119;28;20421;-71
2020/12/06 04:09:40;;;;;;;17.20;14.43;;;6.40;95.80;;;;;;5074450;28;20208;-71
2020/12/06 04:12:06;;;;;;;16.53;13.67;;;6.30;95.80;;;;;;5093017;28;20226;-71
2020/12/06 04:14:31;;;;;;;14.70;12.73;;;6.30;96.10;;;;;;5092510;28;20592;-71
2020/12/06 04:16:57;;;;;;;16.17;13.50;;;6.30;96.00;;;;;;5093295;28;20183;-71
2020/12/06 04:19:23;;;;;;;17.87;14.40;;;6.30;96.00;;;;;;5092929;28;20180;-71
2020/12/06 04:21:49;;;;;;;16.67;14.10;;;6.30;96.00;;;;;;5092632;28;20196;-71
2020/12/06 04:24:15;;;;;;;15.77;13.90;;;6.30;96.00;;;;;;5093255;28;20194;-71
2020/12/06 04:26:41;;;;;;;15.98;14.27;;;6.40;96.20;;;;;;5092258;28;20418;-71
2020/12/06 04:29:07;;;;;;;14.57;12.97;;;6.40;96.20;;;;;;5074501;28;20677;-71
2020/12/06 04:31:32;;;;;;;15.90;13.03;;;6.50;96.30;;;;;;5092147;28;20248;-71
2020/12/06 04:33:58;;;;;;;15.43;13.60;;;6.50;96.20;;;;;;5093250;28;20204;-71
2020/12/06 04:36:24;;;;;;;15.13;13.63;;;6.50;95.90;;;;;;5092661;28;20321;-71
2020/12/06 04:38:50;;;;;;;19.20;13.63;;;6.40;95.70;;;;;;5092295;28;20576;-71
2020/12/06 04:41:15;;;;;;;17.70;13.87;;;6.20;96.00;;;;;;5092788;28;20848;-71
2020/12/06 04:43:43;;;;;;;15.13;13.20;;;6.20;96.30;;;;;;5091980;28;20685;-71
2020/12/06 04:46:10;;;;;;;15.73;13.90;;;6.20;96.60;;;;;;5092739;28;20385;-71
2020/12/06 04:48:56;;;;;;;13.52;12.23;;;6.20;96.50;;;;;;5073616;28;20341;-71
2020/12/06 04:51:27;;;;;;;14.30;12.85;;;6.00;96.40;;;;;;5092715;28;20180;-71
2020/12/06 04:54:01;;;;;;;15.90;12.38;;;6.00;96.60;;;;;;5092550;28;20173;-71
2020/12/06 04:56:29;;;;;;;15.35;13.50;;;5.90;96.90;;;;;;5092183;28;20174;-72
2020/12/06 04:59:01;;;;;;;15.10;13.50;;;5.80;97.20;;;;;;5092573;28;20175;-71
2020/12/06 05:01:34;;;;;;;17.52;13.93;;;5.80;97.40;;;;;;5092191;28;20165;-72
2020/12/06 05:04:16;;;;;;;14.60;13.05;;;5.80;97.40;;;;;;5092444;28;20528;-71
2020/12/06 05:06:42;;;;;;;14.95;13.05;;;5.90;97.50;;;;;;5091601;28;20548;-71
2020/12/06 05:09:13;;;;;;;18.05;13.60;;;6.00;97.60;;;;;;5092323;28;20219;-71
2020/12/06 05:11:40;;;;;;;17.58;14.02;;;6.10;97.50;;;;;;5091622;28;20226;-71
2020/12/06 05:14:06;;;;;;;15.17;13.37;;;6.20;97.30;;;;;;5074316;28;20255;-71
2020/12/06 05:16:38;;;;;;;15.03;13.50;;;6.20;97.10;;;;;;5073358;28;20423;-71
2020/12/06 05:19:06;;;;;;;16.15;13.48;;;6.20;97.00;;;;;;5092266;28;20396;-71
2020/12/06 05:21:40;;;;;;;16.20;12.55;;;6.30;97.00;;;;;;5091495;28;20183;-71
2020/12/06 05:24:06;;;;;;;15.30;13.13;;;6.40;96.80;;;;;;5074264;28;20170;-71
2020/12/06 05:26:33;;;;;;;14.93;13.10;;;6.40;96.60;;;;;;5091443;28;20733;-71
2020/12/06 05:29:00;;;;;;;16.43;13.43;;;6.50;96.50;;;;;;5092044;28;20470;-71
2020/12/06 05:31:26;;;;;;;13.05;11.75;;;6.60;96.40;;;;;;5074215;28;20452;-71
2020/12/06 05:33:52;;;;;;;15.20;11.50;;;6.60;96.20;;;;;;5091449;28;20168;-71
2020/12/06 05:36:18;;;;;;;13.47;12.17;;;6.70;96.30;;;;;;5092211;28;20460;-71
2020/12/06 05:38:44;;;;;;;14.67;13.13;;;6.70;96.10;;;;;;5073280;28;20386;-71
2020/12/06 05:41:10;;;;;;;12.57;11.27;;;6.60;96.00;;;;;;5092102;28;20985;-71
2020/12/06 05:43:37;;;;;;;13.17;11.70;;;6.70;96.10;;;;;;5091230;28;20378;-71
2020/12/06 05:46:11;;;;;;;12.83;11.50;;;6.70;96.00;;;;;;5091802;28;20553;-71
2020/12/06 05:48:39;;;;;;;12.77;11.47;;;6.70;96.10;;;;;;5091146;28;20460;-71
2020/12/06 05:51:05;;;;;;;13.05;11.82;;;6.70;95.90;;;;;;5092227;28;20377;-71
2020/12/06 05:53:32;;;;;;;13.90;11.43;;;6.80;95.90;;;;;;5091338;28;20165;-72
2020/12/06 05:56:18;;;;;;;15.97;14.27;;;6.90;96.10;;;;;;5091932;28;20402;-71
2020/12/06 05:58:46;;;;;;;13.80;12.40;;;6.90;96.10;;;;;;5091188;28;20400;-71
2020/12/06 06:01:13;;;;;;;15.13;12.17;;;6.90;96.10;;;;;;5092241;28;20389;-71
2020/12/06 06:03:46;;;;;;;13.80;11.30;;;6.90;96.00;;;;;;5095085;28;20374;-72
2020/12/06 06:06:38;;;;;;;14.10;12.67;;;6.90;95.90;;;;;;5095747;28;20408;-71
2020/12/06 06:09:04;;;;;;;13.10;11.90;;;6.90;95.90;;;;;;5095659;28;20415;-71
2020/12/06 06:11:31;;;;;;;15.03;12.37;;;7.00;96.00;;;;;;5095381;28;20407;-72
2020/12/06 06:14:02;;;;;;;15.70;13.20;;;7.00;96.00;;;;;;5095368;28;20375;-71
2020/12/06 06:16:30;;;;;;;13.70;12.03;;;7.00;96.00;;;;;;5095622;28;20392;-71
2020/12/06 06:18:58;;;;;;;15.10;13.60;;;7.00;95.90;;;;;;5095267;28;20419;-71
2020/12/06 06:21:29;;;;;;;13.33;12.03;;;7.00;95.80;;;;;;5095895;28;20437;-71
2020/12/06 06:23:59;;;;;;;13.60;12.07;;;7.10;95.70;;;;;;5094490;28;20461;-71
2020/12/06 06:26:30;;;;;;;13.20;11.90;;;7.10;95.90;;;;;;5095396;28;20397;-71
2020/12/06 06:28:56;;;;;;;15.23;12.30;;;7.00;96.00;;;;;;5094585;28;20469;-71
2020/12/06 06:31:22;;;;;;;14.07;12.70;;;7.00;96.10;;;;;;5095467;28;20428;-71
2020/12/06 06:33:48;;;;;;;14.40;12.20;;;7.10;95.90;;;;;;5094551;28;20184;-71
2020/12/06 06:36:18;;;;;;;13.93;11.63;;;7.10;95.80;;;;;;5095243;28;20383;-71
2020/12/06 06:38:44;;;;;;;13.37;11.60;;;7.10;95.60;;;;;;5094327;28;20409;-71
2020/12/06 06:41:11;;;;;;;12.47;11.20;;;7.10;95.60;;;;;;5095045;28;20469;-71
2020/12/06 06:43:39;;;;;;;13.77;12.37;;;7.20;95.90;;;;;;5094188;28;20412;-71
2020/12/06 06:46:18;;;;;;;14.33;12.83;;;7.20;96.00;;;;;;5095218;28;20409;-71
2020/12/06 06:48:50;;;;;;;14.80;13.30;;;7.10;96.20;;;;;;5094089;28;20436;-71
2020/12/06 06:51:25;;;;;;;13.37;11.97;;;7.10;96.30;;;;;;5076877;28;20500;-71
2020/12/06 06:53:55;;;;;;;13.87;12.37;;;7.10;96.30;;;;;;5094025;28;20403;-71
2020/12/06 06:56:21;;;;;;;15.60;13.60;;;7.20;96.40;;;;;;5094924;28;20488;-71
2020/12/06 06:58:48;;;;;;;15.43;13.10;;;7.20;96.50;;;;;;5093981;28;20407;-71
2020/12/06 07:01:22;;;;;;;14.83;13.23;;;7.20;96.50;;;;;;5095077;28;20413;-71
2020/12/06 07:03:52;;;;;;;14.93;13.27;;;7.20;96.50;;;;;;5093914;28;20736;-71
2020/12/06 07:07:06;;;;;;;15.73;13.63;;;7.20;96.60;;;;;;5094386;28;20394;-71
2020/12/06 07:09:32;;;;;;;14.57;13.07;;;7.20;96.60;;;;;;5072610;28;20808;-70
2020/12/06 07:12:00;;;;;;;14.27;12.77;;;7.20;96.70;;;;;;5093805;28;20409;-71
2020/12/06 07:14:27;;;;;;;14.23;12.80;;;7.20;96.60;;;;;;5094349;28;20399;-71
2020/12/06 07:16:55;;;;;;;14.47;12.77;;;7.20;96.70;;;;;;5093639;28;21071;-71
2020/12/06 07:19:21;;;;;;;15.10;13.40;;;7.20;96.50;;;;;;5094499;28;20515;-71
2020/12/06 07:21:48;;;;;;;14.70;12.13;;;7.20;96.50;;;;;;5093489;28;20395;-71
2020/12/06 07:24:16;;;;;;;13.30;12.00;;;7.20;96.60;;;;;;5094307;28;20435;-71
2020/12/06 07:26:43;;;;;;;14.83;13.07;;;7.20;96.80;;;;;;5093264;28;20411;-71
2020/12/06 07:29:09;;;;;;;14.80;13.17;;;7.20;96.70;;;;;;5093952;28;20794;-71
2020/12/06 07:31:35;;;;;;;14.27;12.83;;;7.20;96.50;;;;;;5093603;28;20411;-71
2020/12/06 07:34:02;;;;;;;14.00;12.50;;;7.20;96.70;;;;;;5093732;28;20744;-71
2020/12/06 07:36:35;;;;;;;16.23;13.30;;;7.20;96.80;;;;;;5075999;28;20484;-71
2020/12/06 07:39:15;;;;;;;15.17;13.10;;;7.20;97.10;;;;;;5093624;28;20391;-71
2020/12/06 07:41:49;;;;;;;14.53;13.13;;;7.30;97.00;;;;;;5093267;28;20741;-71
2020/12/06 07:44:15;;;;;;;15.57;13.77;;;7.30;97.00;;;;;;5075724;28;20416;-71
2020/12/06 07:46:41;;;;;;;14.57;12.90;;;7.20;96.90;;;;;;5093110;28;20420;-71
2020/12/06 07:49:07;;;;;;;15.40;13.80;;;7.20;96.90;;;;;;5093720;28;20458;-71
2020/12/06 07:51:33;;;;;;;15.63;14.00;;;7.20;96.90;;;;;;5093803;28;20438;-71
2020/12/06 07:54:03;;;;;;;18.60;15.10;;;7.20;96.80;;;;;;5092666;28;20466;-71
2020/12/06 07:56:29;;;;;;;17.30;14.20;;;7.20;96.70;;;;;;5087011;28;20610;-71
2020/12/06 07:59:18;;;;;;;21.57;14.37;;;7.20;96.70;;;;;;5092811;28;20426;-71
2020/12/06 08:01:45;;;;;;;16.93;14.50;;;7.20;96.90;;;;;;5092732;28;20408;-71
2020/12/06 08:04:25;;;;;;;16.73;14.33;;;7.30;96.90;;;;;;5093708;28;20428;-71
2020/12/06 08:07:00;;;;;;;19.53;14.23;;;7.20;96.90;;;;;;5074620;28;20936;-71
2020/12/06 08:09:29;;;;;;;15.60;14.00;;;7.20;96.90;;;;;;5093226;28;20525;-71
2020/12/06 08:12:00;;;;;;;16.10;13.20;;;7.20;97.00;;;;;;5092537;28;20404;-71
2020/12/06 08:14:26;;;;;;;17.50;13.60;;;7.20;97.10;;;;;;5093343;28;20447;-71
2020/12/06 08:17:00;;;;;;;19.20;14.10;;;7.20;97.20;;;;;;5092538;28;20431;-71
2020/12/06 08:19:26;;;;;;;15.63;13.67;;;7.30;97.80;;;;;;5093391;28;20406;-71
2020/12/06 08:21:58;;;;;;;18.17;15.10;;;7.30;98.10;;;;;;5092459;28;20419;-71
2020/12/06 08:24:24;;;;;;;21.10;16.63;;;7.40;98.20;;;;;;5092411;28;20481;-71
2020/12/06 08:26:51;;;;;;;22.47;16.90;;;7.40;98.20;;;;;;5092362;28;20435;-71
2020/12/06 08:29:18;;;;;;;21.40;16.80;;;7.40;98.20;;;;;;5093116;28;20446;-71
2020/12/06 08:31:45;;;;;;;22.70;17.37;;;7.40;97.90;;;;;;5092178;28;20413;-71
2020/12/06 08:34:17;;;;;;;23.67;18.33;;;7.40;98.50;;;;;;5093076;28;20487;-71
2020/12/06 08:36:43;;;;;;;23.83;17.97;;;7.40;98.60;;;;;;5092498;28;20749;-71
2020/12/06 08:39:38;;;;;;;23.03;18.07;;;7.50;98.60;;;;;;5092891;28;20384;-71
2020/12/06 08:42:33;;;;;;;24.67;18.13;;;7.50;98.80;;;;;;5070728;28;20969;-71
2020/12/06 08:45:00;;;;;;;30.07;19.13;;;7.50;98.10;;;;;;5070571;28;20903;-71
2020/12/06 08:47:43;;;;;;;8.43;7.60;;;7.60;98.00;;;;;;5092958;28;20446;-69
2020/12/06 08:50:13;;;;;;;25.90;20.33;;;8.40;99.90;;;;;;5092629;28;20463;-69
2020/12/06 08:52:40;;;;;;;25.23;18.93;;;9.10;99.90;;;;;;5092538;28;20362;-72
2020/12/06 08:55:36;;;;;;;21.53;18.07;;;9.40;99.90;;;;;;5092552;28;20913;-69
2020/12/06 08:58:02;;;;;;;21.00;18.30;;;9.20;99.90;;;;;;5091885;28;20416;-70
2020/12/06 09:00:28;;;;;;;25.60;19.70;;;9.10;99.90;;;;;;5092660;28;20501;-69
2020/12/06 09:02:59;;;;;;;25.57;19.60;;;9.10;98.90;;;;;;5091501;28;20451;-70
2020/12/06 09:05:24;;;;;;;22.83;18.40;;;9.20;99.50;;;;;;5092475;28;20413;-69
2020/12/06 09:07:50;;;;;;;21.53;17.70;;;9.30;98.00;;;;;;5091615;28;20395;-69
2020/12/06 09:10:16;;;;;;;23.87;19.33;;;10.10;99.90;;;;;;5057370;28;20220;-69
2020/12/06 09:12:42;;;;;;;22.80;18.90;;;10.70;99.90;;;;;;5091999;28;20183;-72
2020/12/06 09:15:08;;;;;;;24.33;19.80;;;11.00;97.30;;;;;;5092077;28;20406;-70
2020/12/06 09:17:34;;;;;;;22.00;18.53;;;11.10;95.00;;;;;;5091703;28;20185;-69
2020/12/06 09:20:00;;;;;;;26.10;19.50;;;11.40;95.30;;;;;;5091404;28;20177;-69
2020/12/06 09:22:26;;;;;;;24.50;20.37;;;11.40;93.20;;;;;;5092210;28;20551;-69
2020/12/06 09:24:52;;;;;;;23.93;19.80;;;11.30;93.60;;;;;;5073038;28;20855;-69
2020/12/06 09:27:18;;;;;;;24.27;19.83;;;11.40;94.30;;;;;;5074113;28;20416;-69
2020/12/06 09:29:43;;;;;;;24.07;20.17;;;11.50;94.30;;;;;;5091664;28;20226;-72
2020/12/06 09:32:09;;;;;;;22.20;19.80;;;11.50;92.40;;;;;;5091937;28;20173;-69
2020/12/06 09:34:35;;;;;;;23.33;18.70;;;11.30;91.50;;;;;;5092414;28;20228;-69
2020/12/06 09:37:00;;;;;;;344.17;215.93;;;11.20;92.00;;;;;;5095130;28;20312;-69
2020/12/06 09:39:26;;;;;;;91.83;58.93;;;11.30;94.10;;;;;;5096292;28;20177;-69
2020/12/06 09:41:52;;;;;;;27.30;21.93;;;11.50;93.40;;;;;;5095201;28;20650;-70
2020/12/06 09:44:18;;;;;;;22.00;19.30;;;11.60;91.80;;;;;;5095948;28;20537;-70
2020/12/06 09:46:43;;;;;;;22.30;18.87;;;11.70;91.70;;;;;;5095788;28;20210;-72
2020/12/06 09:49:09;;;;;;;25.57;21.07;;;11.70;92.30;;;;;;5095621;28;20287;-70
2020/12/06 09:51:35;;;;;;;24.47;20.07;;;11.70;91.10;;;;;;5096061;28;20211;-69
2020/12/06 09:54:02;;;;;;;23.00;19.20;;;11.70;92.20;;;;;;5094946;28;20191;-70
2020/12/06 09:56:29;;;;;;;24.90;19.67;;;11.90;92.50;;;;;;5095807;28;20689;-69
2020/12/06 09:58:55;;;;;;;24.40;20.80;;;12.20;93.50;;;;;;5095155;28;20411;-69
2020/12/06 10:01:24;;;;;;;22.73;19.20;;;12.70;93.40;;;;;;5095854;28;20458;-69
2020/12/06 10:03:50;;;;;;;21.07;18.57;;;13.00;93.60;;;;;;5094981;28;20411;-69
2020/12/06 10:06:22;;;;;;;20.27;17.70;;;13.60;93.40;;;;;;5095782;28;20414;-69
2020/12/06 10:08:48;;;;;;;20.27;18.13;;;14.30;92.10;;;;;;5094928;28;20440;-70
2020/12/06 10:11:14;;;;;;;20.80;18.10;;;14.40;90.10;;;;;;5086042;28;20993;-70
2020/12/06 10:13:39;;;;;;;21.13;18.60;;;14.10;85.90;;;;;;5075354;28;20194;-70
2020/12/06 10:16:05;;;;;;;23.20;18.57;;;13.80;87.10;;;;;;5093726;28;20177;-69
2020/12/06 10:18:31;;;;;;;22.20;18.53;;;13.80;91.50;;;;;;5094919;28;20173;-70
2020/12/06 10:20:57;;;;;;;23.17;19.80;;;13.80;87.60;;;;;;5076340;28;20178;-69
2020/12/06 10:23:22;;;;;;;24.73;20.20;;;13.70;86.00;;;;;;5095258;28;20563;-69
2020/12/06 10:25:48;;;;;;;20.97;18.77;;;13.60;88.30;;;;;;5094520;28;20188;-72
2020/12/06 10:28:14;;;;;;;22.07;18.93;;;13.50;90.80;;;;;;5094527;28;20694;-69
2020/12/06 10:30:39;;;;;;;24.23;19.57;;;13.70;91.00;;;;;;5095278;28;20205;-69
2020/12/06 10:33:05;;;;;;;22.27;19.67;;;13.70;86.10;;;;;;5094532;28;20682;-69
2020/12/06 10:35:31;;;;;;;23.90;19.57;;;13.70;88.30;;;;;;5095085;28;20200;-70
2020/12/06 10:37:57;;;;;;;22.77;19.20;;;13.70;90.40;;;;;;5094389;28;20210;-70
2020/12/06 10:40:22;;;;;;;24.23;19.80;;;13.70;89.50;;;;;;5093508;28;20256;-72
2020/12/06 10:42:48;;;;;;;23.30;19.50;;;13.70;91.10;;;;;;5073744;28;20286;-72
2020/12/06 10:45:14;;;;;;;23.27;18.40;;;13.70;90.60;;;;;;5094306;28;20177;-70
2020/12/06 10:47:40;;;;;;;21.60;18.17;;;13.60;89.90;;;;;;5083349;28;20174;-70
2020/12/06 10:50:06;;;;;;;21.30;17.83;;;13.80;91.50;;;;;;5073747;28;20509;-70
2020/12/06 10:52:31;;;;;;;22.53;19.17;;;13.90;90.10;;;;;;5074590;28;20180;-70
2020/12/06 10:54:57;;;;;;;21.97;19.57;;;14.10;90.90;;;;;;5073659;28;20962;-70
2020/12/06 10:57:23;;;;;;;26.23;21.30;;;14.10;87.20;;;;;;5074338;28;20234;-70
2020/12/06 10:59:49;;;;;;;447.30;270.93;;;14.10;84.30;;;;;;5073824;28;20174;-72
2020/12/06 11:02:15;;;;;;;115.17;77.13;;;14.00;89.70;;;;;;5074219;28;20181;-70
2020/12/06 11:04:40;;;;;;;26.87;22.33;;;14.20;90.60;;;;;;5074108;28;20179;-70
2020/12/06 11:07:06;;;;;;;23.57;20.00;;;14.30;88.10;;;;;;5039011;28;20264;-70
2020/12/06 11:09:32;;;;;;;25.90;19.87;;;14.30;85.90;;;;;;5074037;28;20203;-70
2020/12/06 11:11:58;;;;;;;24.73;20.60;;;14.20;86.80;;;;;;5073255;28;20549;-70
2020/12/06 11:14:23;;;;;;;23.30;20.73;;;14.20;89.80;;;;;;5081794;28;20188;-70
2020/12/06 11:16:50;;;;;;;27.90;21.23;;;14.20;90.00;;;;;;5093435;28;20197;-72
2020/12/06 11:19:16;;;;;;;21.47;18.37;;;14.20;90.30;;;;;;5094611;28;20178;-70
2020/12/06 11:21:42;;;;;;;21.40;18.20;;;14.40;88.60;;;;;;5094601;28;20465;-70
2020/12/06 11:24:08;;;;;;;21.47;19.17;;;14.60;88.40;;;;;;5093652;28;20208;-70
2020/12/06 11:26:34;;;;;;;22.67;20.13;;;14.50;88.20;;;;;;5094073;28;20211;-70
2020/12/06 11:28:59;;;;;;;21.03;18.83;;;14.60;86.90;;;;;;5093265;28;20686;-70
2020/12/06 11:31:25;;;;;;;19.30;17.20;;;14.50;82.70;;;;;;5093815;28;20499;-70
2020/12/06 11:33:51;;;;;;;19.50;17.47;;;14.50;82.30;;;;;;5093032;28;20182;-71
2020/12/06 11:36:17;;;;;;;17.80;16.00;;;14.30;81.10;;;;;;5094064;28;20615;-70
2020/12/06 11:38:44;;;;;;;19.43;16.50;;;14.10;82.40;;;;;;5093876;28;20228;-70
2020/12/06 11:41:10;;;;;;;20.20;17.00;;;14.00;81.60;;;;;;5074249;28;20194;-70
2020/12/06 11:43:36;;;;;;;17.77;15.97;;;14.00;88.00;;;;;;5093271;28;20408;-70
2020/12/06 11:46:01;;;;;;;18.77;16.70;;;14.00;86.10;;;;;;5091098;28;20170;-70
2020/12/06 11:48:27;;;;;;;18.43;16.33;;;13.90;83.30;;;;;;5092450;28;20180;-71
2020/12/06 11:50:53;;;;;;;17.73;15.93;;;13.90;85.10;;;;;;5091318;28;20399;-71
2020/12/06 11:53:19;;;;;;;20.37;17.73;;;13.90;86.90;;;;;;5091391;28;20180;-70
2020/12/06 11:55:44;;;;;;;19.33;16.63;;;13.90;89.70;;;;;;5082291;28;20538;-72
2020/12/06 11:58:10;;;;;;;18.30;16.50;;;14.10;90.00;;;;;;5065687;28;20250;-70
2020/12/06 12:00:36;;;;;;;18.37;16.40;;;14.30;90.70;;;;;;5090676;28;20648;-70
2020/12/06 12:03:02;;;;;;;18.43;16.50;;;14.40;87.90;;;;;;5090362;28;20184;-71
2020/12/06 12:05:28;;;;;;;18.23;16.33;;;14.40;84.80;;;;;;5089356;28;20205;-70
2020/12/06 12:07:54;;;;;;;209.80;148.50;;;14.50;89.50;;;;;;5090884;28;20486;-70
2020/12/06 12:10:19;;;;;;;114.40;74.60;;;14.60;90.10;;;;;;5091265;28;20463;-70
2020/12/06 12:12:47;;;;;;;21.03;18.73;;;14.60;88.10;;;;;;5091484;28;20181;-70
2020/12/06 12:15:13;;;;;;;20.97;17.47;;;14.60;83.70;;;;;;5089892;28;20276;-70
2020/12/06 12:17:39;;;;;;;19.63;17.57;;;14.50;80.80;;;;;;5090607;28;20908;-70
2020/12/06 12:20:08;;;;;;;22.63;20.23;;;14.40;82.00;;;;;;5087398;28;20459;-70
2020/12/06 12:22:34;;;;;;;24.10;21.00;;;14.30;81.80;;;;;;5092652;28;20456;-70
2020/12/06 12:25:00;;;;;;;25.07;21.80;;;14.20;80.50;;;;;;5092474;28;20458;-70
2020/12/06 12:27:25;;;;;;;22.30;20.00;;;14.10;82.00;;;;;;5081305;28;20531;-73
2020/12/06 12:29:51;;;;;;;19.13;17.20;;;14.10;88.50;;;;;;5090061;28;20233;-71
2020/12/06 12:32:17;;;;;;;21.60;17.67;;;14.40;91.80;;;;;;5091442;28;20421;-70
2020/12/06 12:34:43;;;;;;;22.80;20.40;;;15.10;92.70;;;;;;5090700;28;20189;-70